HAZ2629 ZSHC-ZUCK
Flight info
| Callsign | HAZ2629 |
|---|---|
| Flight time | 2h 22m |
| Altitude | 36100 |
| Route | ABVIL G204 TXN DCT JDZ DCT KHN DCT PULES W46 LLC W138 DYG DCT SUDPI W80 OPAMU |
| Aircraft | B77W/H-SDE1E2E3FGHIJ2J3J4J5M1RWXY/LB1D1 |
Departure
| Time | 2026-04-23 09:44 |
|---|---|
| Airport | Hangzhou Xiaoshan International Airport (ZSHC) |
Arrival
| Time | 2026-04-23 12:06 |
|---|---|
| Airport | Chongqing Jiangbei International Airport (ZUCK) |
| Time | Latitude | Longitude | Altitude | Speed | Heading |
|---|---|---|---|---|---|
| 2026-04-23 09:22 | 30.23975 | 120.42300 | 35 ft | 0 kts | 137° |
| 2026-04-23 09:33 | 30.23978 | 120.42297 | 35 ft | 2 kts | 137° |
| 2026-04-23 09:33 | 30.23989 | 120.42286 | 35 ft | 2 kts | 137° |
| 2026-04-23 09:33 | 30.24000 | 120.42274 | 35 ft | 2 kts | 137° |
| 2026-04-23 09:34 | 30.24012 | 120.42263 | 35 ft | 2 kts | 151° |
| 2026-04-23 09:34 | 30.24026 | 120.42257 | 35 ft | 2 kts | 172° |
| 2026-04-23 09:34 | 30.24040 | 120.42256 | 35 ft | 2 kts | 188° |
| 2026-04-23 09:34 | 30.24054 | 120.42261 | 35 ft | 2 kts | 205° |
| 2026-04-23 09:35 | 30.24066 | 120.42269 | 35 ft | 2 kts | 221° |
| 2026-04-23 09:35 | 30.24076 | 120.42282 | 35 ft | 1 kts | 239° |
| 2026-04-23 09:35 | 30.24078 | 120.42287 | 35 ft | 0 kts | 243° |
| 2026-04-23 09:38 | 30.24075 | 120.42280 | 35 ft | 1 kts | 243° |
| 2026-04-23 09:38 | 30.24065 | 120.42257 | 35 ft | 4 kts | 243° |
| 2026-04-23 09:38 | 30.24050 | 120.42211 | 35 ft | 7 kts | 267° |
| 2026-04-23 09:39 | 30.24075 | 120.42169 | 35 ft | 6 kts | 329° |
| 2026-04-23 09:39 | 30.24116 | 120.42146 | 35 ft | 6 kts | 334° |
| 2026-04-23 09:39 | 30.24159 | 120.42120 | 35 ft | 7 kts | 319° |
| 2026-04-23 09:39 | 30.24173 | 120.42071 | 35 ft | 8 kts | 263° |
| 2026-04-23 09:40 | 30.24146 | 120.41997 | 35 ft | 11 kts | 242° |
| 2026-04-23 09:40 | 30.24106 | 120.41909 | 35 ft | 13 kts | 242° |
| 2026-04-23 09:40 | 30.24064 | 120.41814 | 35 ft | 15 kts | 243° |
| 2026-04-23 09:40 | 30.24016 | 120.41707 | 35 ft | 17 kts | 243° |
| 2026-04-23 09:41 | 30.23960 | 120.41579 | 35 ft | 18 kts | 243° |
| 2026-04-23 09:41 | 30.23900 | 120.41441 | 35 ft | 19 kts | 243° |
| 2026-04-23 09:41 | 30.23839 | 120.41297 | 35 ft | 21 kts | 244° |
| 2026-04-23 09:41 | 30.23768 | 120.41142 | 35 ft | 21 kts | 242° |
| 2026-04-23 09:42 | 30.23709 | 120.41013 | 35 ft | 11 kts | 242° |
| 2026-04-23 09:42 | 30.23688 | 120.40951 | 35 ft | 5 kts | 269° |
| 2026-04-23 09:42 | 30.23708 | 120.40914 | 35 ft | 5 kts | 313° |
| 2026-04-23 09:42 | 30.23747 | 120.40885 | 35 ft | 8 kts | 334° |
| 2026-04-23 09:43 | 30.23801 | 120.40860 | 35 ft | 7 kts | 356° |
| 2026-04-23 09:43 | 30.23842 | 120.40884 | 35 ft | 6 kts | 56° |
| 2026-04-23 09:43 | 30.23867 | 120.40939 | 35 ft | 14 kts | 62° |
| 2026-04-23 09:43 | 30.24043 | 120.41333 | 35 ft | 97 kts | 63° |
| 2026-04-23 09:44 | 30.24473 | 120.42303 | 63 ft | 168 kts | 61° |
| 2026-04-23 09:44 | 30.25055 | 120.43585 | 764 ft | 185 kts | 61° |
| 2026-04-23 09:44 | 30.25557 | 120.44902 | 1806 ft | 183 kts | 61° |
| 2026-04-23 09:44 | 30.26191 | 120.46242 | 2436 ft | 198 kts | 58° |
| 2026-04-23 09:45 | 30.26834 | 120.47634 | 3281 ft | 202 kts | 60° |
| 2026-04-23 09:45 | 30.27474 | 120.49076 | 4133 ft | 205 kts | 60° |
| 2026-04-23 09:45 | 30.28125 | 120.50546 | 4951 ft | 209 kts | 60° |
| 2026-04-23 09:45 | 30.28781 | 120.52032 | 5760 ft | 212 kts | 60° |
| 2026-04-23 09:46 | 30.29460 | 120.53566 | 6523 ft | 218 kts | 60° |
| 2026-04-23 09:46 | 30.30154 | 120.55133 | 7268 ft | 224 kts | 59° |
| 2026-04-23 09:46 | 30.30869 | 120.56750 | 7976 ft | 230 kts | 60° |
| 2026-04-23 09:46 | 30.31597 | 120.58398 | 8689 ft | 236 kts | 60° |
| 2026-04-23 09:47 | 30.32355 | 120.60101 | 9378 ft | 242 kts | 56° |
| 2026-04-23 09:47 | 30.33463 | 120.61530 | 10025 ft | 242 kts | 30° |
| 2026-04-23 09:47 | 30.35011 | 120.62258 | 10654 ft | 241 kts | 4° |
| 2026-04-23 09:47 | 30.36661 | 120.62128 | 11295 ft | 239 kts | 338° |
| 2026-04-23 09:48 | 30.38058 | 120.61206 | 12003 ft | 233 kts | 313° |
| 2026-04-23 09:48 | 30.38987 | 120.59692 | 12687 ft | 232 kts | 289° |
| 2026-04-23 09:48 | 30.39270 | 120.57891 | 13371 ft | 231 kts | 266° |
| 2026-04-23 09:48 | 30.38871 | 120.56119 | 14116 ft | 231 kts | 244° |
| 2026-04-23 09:49 | 30.38066 | 120.54563 | 14882 ft | 229 kts | 241° |
| 2026-04-23 09:49 | 30.37278 | 120.52952 | 15532 ft | 232 kts | 244° |
| 2026-04-23 09:49 | 30.36510 | 120.51245 | 15887 ft | 248 kts | 244° |
| 2026-04-23 09:49 | 30.35706 | 120.49416 | 16288 ft | 264 kts | 245° |
| 2026-04-23 09:50 | 30.34856 | 120.47479 | 16743 ft | 279 kts | 244° |
| 2026-04-23 09:50 | 30.33958 | 120.45445 | 17198 ft | 294 kts | 244° |
| 2026-04-23 09:50 | 30.33005 | 120.43291 | 17688 ft | 308 kts | 244° |
| 2026-04-23 09:50 | 30.32008 | 120.41043 | 18217 ft | 322 kts | 244° |
| 2026-04-23 09:51 | 30.30969 | 120.38697 | 18789 ft | 334 kts | 244° |
| 2026-04-23 09:51 | 30.29901 | 120.36288 | 19360 ft | 345 kts | 244° |
| 2026-04-23 09:51 | 30.28788 | 120.33780 | 19906 ft | 357 kts | 244° |
| 2026-04-23 09:51 | 30.27639 | 120.31191 | 20456 ft | 369 kts | 244° |
| 2026-04-23 09:52 | 30.26460 | 120.28537 | 20979 ft | 380 kts | 244° |
| 2026-04-23 09:52 | 30.25245 | 120.25804 | 21657 ft | 386 kts | 244° |
| 2026-04-23 09:52 | 30.24008 | 120.23024 | 22515 ft | 386 kts | 244° |
| 2026-04-23 09:52 | 30.22794 | 120.20297 | 23427 ft | 385 kts | 244° |
| 2026-04-23 09:53 | 30.21574 | 120.17556 | 24204 ft | 387 kts | 244° |
| 2026-04-23 09:53 | 30.20330 | 120.14762 | 24849 ft | 393 kts | 244° |
| 2026-04-23 09:53 | 30.19080 | 120.11964 | 25443 ft | 400 kts | 244° |
| 2026-04-23 09:53 | 30.17791 | 120.09085 | 26181 ft | 403 kts | 244° |
| 2026-04-23 09:54 | 30.16511 | 120.06229 | 26917 ft | 406 kts | 244° |
| 2026-04-23 09:54 | 30.15210 | 120.03326 | 27661 ft | 408 kts | 244° |
| 2026-04-23 09:54 | 30.13911 | 120.00429 | 28320 ft | 412 kts | 244° |
| 2026-04-23 09:54 | 30.12581 | 119.97467 | 28899 ft | 417 kts | 244° |
| 2026-04-23 09:55 | 30.11248 | 119.94500 | 29610 ft | 418 kts | 244° |
| 2026-04-23 09:55 | 30.09919 | 119.91545 | 30589 ft | 413 kts | 245° |
| 2026-04-23 09:55 | 30.08639 | 119.88705 | 31997 ft | 396 kts | 245° |
| 2026-04-23 09:55 | 30.07412 | 119.85986 | 33634 ft | 374 kts | 245° |
| 2026-04-23 09:56 | 30.06255 | 119.83420 | 35091 ft | 357 kts | 246° |
| 2026-04-23 09:56 | 30.05129 | 119.80920 | 35900 ft | 351 kts | 246° |
| 2026-04-23 09:56 | 30.03906 | 119.78464 | 36079 ft | 359 kts | 242° |
| 2026-04-23 09:56 | 30.02413 | 119.76099 | 36079 ft | 371 kts | 237° |
| 2026-04-23 09:57 | 30.00633 | 119.73852 | 36085 ft | 382 kts | 232° |
| 2026-04-23 09:57 | 29.96847 | 119.69476 | 36076 ft | 385 kts | 232° |
| 2026-04-23 09:58 | 29.93072 | 119.65097 | 36071 ft | 384 kts | 232° |
| 2026-04-23 09:58 | 29.89336 | 119.60751 | 36070 ft | 383 kts | 233° |
| 2026-04-23 09:59 | 29.85574 | 119.56369 | 36074 ft | 384 kts | 232° |
| 2026-04-23 09:59 | 29.81885 | 119.52074 | 36070 ft | 384 kts | 232° |
| 2026-04-23 10:00 | 29.78505 | 119.48142 | 36071 ft | 384 kts | 233° |
| 2026-04-23 10:00 | 29.75160 | 119.44254 | 36069 ft | 385 kts | 232° |
| 2026-04-23 10:01 | 29.71410 | 119.39892 | 36063 ft | 383 kts | 233° |
| 2026-04-23 10:01 | 29.68214 | 119.35037 | 36073 ft | 381 kts | 244° |
| 2026-04-23 10:02 | 29.66091 | 119.29536 | 36091 ft | 373 kts | 254° |
| 2026-04-23 10:02 | 29.65116 | 119.23719 | 36091 ft | 375 kts | 263° |
| 2026-04-23 10:03 | 29.65285 | 119.17697 | 36093 ft | 378 kts | 271° |
| 2026-04-23 10:03 | 29.65881 | 119.11772 | 36085 ft | 379 kts | 271° |
| 2026-04-23 10:04 | 29.66473 | 119.05759 | 36088 ft | 379 kts | 271° |
| 2026-04-23 10:04 | 29.67044 | 118.99739 | 36080 ft | 380 kts | 271° |
| 2026-04-23 10:05 | 29.67606 | 118.93703 | 36083 ft | 379 kts | 271° |
| 2026-04-23 10:05 | 29.68161 | 118.87684 | 36082 ft | 379 kts | 271° |
| 2026-04-23 10:06 | 29.68707 | 118.81704 | 36086 ft | 379 kts | 271° |
| 2026-04-23 10:06 | 29.69253 | 118.75692 | 36080 ft | 380 kts | 271° |
| 2026-04-23 10:07 | 29.69800 | 118.69640 | 36080 ft | 380 kts | 271° |
| 2026-04-23 10:07 | 29.70359 | 118.63596 | 36075 ft | 380 kts | 271° |
| 2026-04-23 10:08 | 29.70913 | 118.57586 | 36080 ft | 380 kts | 271° |
| 2026-04-23 10:08 | 29.71467 | 118.51534 | 36075 ft | 380 kts | 271° |
| 2026-04-23 10:09 | 29.72290 | 118.42489 | 36071 ft | 380 kts | 271° |
| 2026-04-23 10:09 | 29.72835 | 118.36465 | 36070 ft | 379 kts | 271° |
| 2026-04-23 10:10 | 29.73338 | 118.30444 | 36097 ft | 379 kts | 268° |
| 2026-04-23 10:10 | 29.72975 | 118.24430 | 36095 ft | 377 kts | 258° |
| 2026-04-23 10:11 | 29.71443 | 118.18688 | 36092 ft | 374 kts | 249° |
| 2026-04-23 10:11 | 29.69455 | 118.13204 | 36091 ft | 375 kts | 249° |
| 2026-04-23 10:12 | 29.67449 | 118.07677 | 36087 ft | 375 kts | 249° |
| 2026-04-23 10:12 | 29.65446 | 118.02163 | 36086 ft | 375 kts | 249° |
| 2026-04-23 10:13 | 29.63427 | 117.96609 | 36084 ft | 375 kts | 249° |
| 2026-04-23 10:13 | 29.61418 | 117.91090 | 36079 ft | 375 kts | 249° |
| 2026-04-23 10:14 | 29.59407 | 117.85574 | 36076 ft | 376 kts | 249° |
| 2026-04-23 10:14 | 29.57396 | 117.80067 | 36075 ft | 376 kts | 249° |
| 2026-04-23 10:15 | 29.55384 | 117.74567 | 36071 ft | 375 kts | 249° |
| 2026-04-23 10:15 | 29.53363 | 117.69051 | 36076 ft | 376 kts | 249° |
| 2026-04-23 10:16 | 29.51342 | 117.63541 | 36071 ft | 376 kts | 249° |
| 2026-04-23 10:16 | 29.49313 | 117.58018 | 36067 ft | 376 kts | 249° |
| 2026-04-23 10:17 | 29.47282 | 117.52496 | 36066 ft | 376 kts | 249° |
| 2026-04-23 10:17 | 29.45253 | 117.46992 | 36063 ft | 375 kts | 249° |
| 2026-04-23 10:18 | 29.43212 | 117.41461 | 36063 ft | 376 kts | 249° |
| 2026-04-23 10:18 | 29.41184 | 117.35974 | 36059 ft | 376 kts | 249° |
| 2026-04-23 10:19 | 29.39150 | 117.30479 | 36086 ft | 376 kts | 249° |
| 2026-04-23 10:19 | 29.37113 | 117.24984 | 36083 ft | 376 kts | 249° |
| 2026-04-23 10:20 | 29.35031 | 117.19513 | 36082 ft | 377 kts | 246° |
| 2026-04-23 10:20 | 29.32131 | 117.14445 | 36084 ft | 383 kts | 236° |
| 2026-04-23 10:21 | 29.28754 | 117.09744 | 36079 ft | 383 kts | 236° |
| 2026-04-23 10:21 | 29.25378 | 117.05058 | 36073 ft | 383 kts | 236° |
| 2026-04-23 10:22 | 29.21973 | 117.00337 | 36073 ft | 384 kts | 236° |
| 2026-04-23 10:22 | 29.18586 | 116.95647 | 36072 ft | 383 kts | 237° |
| 2026-04-23 10:23 | 29.15190 | 116.90949 | 36071 ft | 383 kts | 236° |
| 2026-04-23 10:23 | 29.11797 | 116.86261 | 36069 ft | 383 kts | 236° |
| 2026-04-23 10:24 | 29.08403 | 116.81576 | 36066 ft | 383 kts | 236° |
| 2026-04-23 10:24 | 29.05007 | 116.76896 | 36068 ft | 383 kts | 236° |
| 2026-04-23 10:25 | 29.01600 | 116.72204 | 36065 ft | 383 kts | 236° |
| 2026-04-23 10:25 | 28.98224 | 116.67560 | 36062 ft | 383 kts | 236° |
| 2026-04-23 10:26 | 28.94809 | 116.62869 | 36058 ft | 384 kts | 237° |
| 2026-04-23 10:26 | 28.91395 | 116.58184 | 36063 ft | 384 kts | 236° |
| 2026-04-23 10:27 | 28.87995 | 116.53523 | 36063 ft | 383 kts | 236° |
| 2026-04-23 10:27 | 28.84584 | 116.48852 | 36070 ft | 385 kts | 236° |
| 2026-04-23 10:28 | 28.81148 | 116.44154 | 36066 ft | 384 kts | 236° |
| 2026-04-23 10:28 | 28.77737 | 116.39494 | 36068 ft | 384 kts | 236° |
| 2026-04-23 10:29 | 28.74310 | 116.34817 | 36066 ft | 385 kts | 236° |
| 2026-04-23 10:29 | 28.70874 | 116.30133 | 36094 ft | 386 kts | 236° |
| 2026-04-23 10:30 | 28.67443 | 116.25462 | 36089 ft | 384 kts | 236° |
| 2026-04-23 10:30 | 28.63996 | 116.20774 | 36089 ft | 387 kts | 236° |
| 2026-04-23 10:31 | 28.60571 | 116.16122 | 36086 ft | 385 kts | 236° |
| 2026-04-23 10:31 | 28.57126 | 116.11446 | 36089 ft | 385 kts | 236° |
| 2026-04-23 10:32 | 28.53667 | 116.06758 | 36086 ft | 387 kts | 236° |
| 2026-04-23 10:32 | 28.50221 | 116.02092 | 36084 ft | 387 kts | 236° |
| 2026-04-23 10:33 | 28.46772 | 115.97421 | 36075 ft | 386 kts | 237° |
| 2026-04-23 10:33 | 28.43933 | 115.92344 | 36072 ft | 379 kts | 248° |
| 2026-04-23 10:34 | 28.42210 | 115.86734 | 36074 ft | 379 kts | 258° |
| 2026-04-23 10:34 | 28.41411 | 115.80878 | 36069 ft | 377 kts | 261° |
| 2026-04-23 10:35 | 28.40670 | 115.74976 | 36071 ft | 378 kts | 261° |
| 2026-04-23 10:35 | 28.39903 | 115.69062 | 36071 ft | 379 kts | 261° |
| 2026-04-23 10:36 | 28.39129 | 115.63196 | 36064 ft | 377 kts | 261° |
| 2026-04-23 10:36 | 28.38344 | 115.57309 | 36066 ft | 379 kts | 260° |
| 2026-04-23 10:37 | 28.37540 | 115.51428 | 36061 ft | 377 kts | 260° |
| 2026-04-23 10:37 | 28.36736 | 115.45584 | 36061 ft | 377 kts | 261° |
| 2026-04-23 10:38 | 28.35925 | 115.39708 | 36058 ft | 378 kts | 260° |
| 2026-04-23 10:38 | 28.35114 | 115.33845 | 36071 ft | 378 kts | 260° |
| 2026-04-23 10:39 | 28.34294 | 115.27943 | 36081 ft | 378 kts | 260° |
| 2026-04-23 10:39 | 28.33444 | 115.22089 | 36079 ft | 378 kts | 259° |
| 2026-04-23 10:40 | 28.32571 | 115.16224 | 36079 ft | 378 kts | 259° |
| 2026-04-23 10:40 | 28.31697 | 115.10352 | 36077 ft | 378 kts | 260° |
| 2026-04-23 10:41 | 28.30822 | 115.04486 | 36075 ft | 378 kts | 259° |
| 2026-04-23 10:41 | 28.29943 | 114.98604 | 36072 ft | 378 kts | 260° |
| 2026-04-23 10:42 | 28.29148 | 114.92748 | 36068 ft | 377 kts | 261° |
| 2026-04-23 10:42 | 28.28352 | 114.86874 | 36067 ft | 378 kts | 261° |
| 2026-04-23 10:43 | 28.27549 | 114.80991 | 36065 ft | 378 kts | 261° |
| 2026-04-23 10:43 | 28.26749 | 114.75148 | 36063 ft | 377 kts | 260° |
| 2026-04-23 10:44 | 28.25940 | 114.69269 | 36059 ft | 378 kts | 260° |
| 2026-04-23 10:44 | 28.25135 | 114.63438 | 36059 ft | 376 kts | 261° |
| 2026-04-23 10:45 | 28.24323 | 114.57580 | 36055 ft | 378 kts | 261° |
| 2026-04-23 10:45 | 28.23508 | 114.51715 | 36055 ft | 378 kts | 261° |
| 2026-04-23 10:46 | 28.22692 | 114.45863 | 36051 ft | 377 kts | 261° |
| 2026-04-23 10:46 | 28.21868 | 114.39972 | 36049 ft | 377 kts | 260° |
| 2026-04-23 10:47 | 28.21049 | 114.34135 | 36061 ft | 377 kts | 260° |
| 2026-04-23 10:47 | 28.20282 | 114.28278 | 36079 ft | 377 kts | 261° |
| 2026-04-23 10:48 | 28.19520 | 114.22441 | 36077 ft | 377 kts | 261° |
| 2026-04-23 10:48 | 28.18748 | 114.16563 | 36074 ft | 377 kts | 261° |
| 2026-04-23 10:49 | 28.17980 | 114.10744 | 36073 ft | 375 kts | 261° |
| 2026-04-23 10:49 | 28.17203 | 114.04874 | 36067 ft | 377 kts | 261° |
| 2026-04-23 10:50 | 28.16429 | 113.99052 | 36067 ft | 375 kts | 260° |
| 2026-04-23 10:50 | 28.15651 | 113.93222 | 36055 ft | 375 kts | 261° |
| 2026-04-23 10:51 | 28.14866 | 113.87354 | 36059 ft | 376 kts | 260° |
| 2026-04-23 10:51 | 28.14084 | 113.81534 | 36052 ft | 376 kts | 261° |
| 2026-04-23 10:52 | 28.13296 | 113.75686 | 36051 ft | 375 kts | 260° |
| 2026-04-23 10:52 | 28.12507 | 113.69854 | 36045 ft | 377 kts | 260° |
| 2026-04-23 10:53 | 28.11709 | 113.64006 | 36049 ft | 375 kts | 260° |
| 2026-04-23 10:53 | 28.10913 | 113.58189 | 36048 ft | 376 kts | 261° |
| 2026-04-23 10:54 | 28.10121 | 113.52325 | 36042 ft | 375 kts | 261° |
| 2026-04-23 10:54 | 28.09355 | 113.46491 | 36043 ft | 376 kts | 261° |
| 2026-04-23 10:55 | 28.08578 | 113.40656 | 36043 ft | 377 kts | 261° |
| 2026-04-23 10:55 | 28.07743 | 113.34831 | 36047 ft | 375 kts | 259° |
| 2026-04-23 10:56 | 28.06851 | 113.29014 | 36066 ft | 375 kts | 259° |
| 2026-04-23 10:56 | 28.05965 | 113.23228 | 36065 ft | 376 kts | 259° |
| 2026-04-23 10:57 | 28.05074 | 113.17403 | 36062 ft | 376 kts | 259° |
| 2026-04-23 10:57 | 28.04187 | 113.11615 | 36055 ft | 375 kts | 259° |
| 2026-04-23 10:58 | 28.03288 | 113.05765 | 36054 ft | 376 kts | 259° |
| 2026-04-23 10:58 | 28.02394 | 112.99964 | 36054 ft | 376 kts | 259° |
| 2026-04-23 10:59 | 28.01985 | 112.94112 | 36047 ft | 377 kts | 269° |
| 2026-04-23 10:59 | 28.02376 | 112.88163 | 36049 ft | 380 kts | 270° |
| 2026-04-23 11:00 | 28.02791 | 112.82232 | 36048 ft | 380 kts | 270° |
| 2026-04-23 11:00 | 28.03197 | 112.76297 | 36045 ft | 379 kts | 270° |
| 2026-04-23 11:01 | 28.03598 | 112.70362 | 36047 ft | 380 kts | 271° |
| 2026-04-23 11:01 | 28.03998 | 112.64409 | 36045 ft | 379 kts | 270° |
| 2026-04-23 11:02 | 28.04391 | 112.58498 | 36040 ft | 378 kts | 270° |
| 2026-04-23 11:02 | 28.04782 | 112.52573 | 36040 ft | 379 kts | 271° |
| 2026-04-23 11:03 | 28.05171 | 112.46641 | 36042 ft | 378 kts | 270° |
| 2026-04-23 11:03 | 28.05556 | 112.40729 | 36037 ft | 378 kts | 270° |
| 2026-04-23 11:04 | 28.05939 | 112.34805 | 36038 ft | 380 kts | 270° |
| 2026-04-23 11:04 | 28.06322 | 112.28845 | 36069 ft | 378 kts | 270° |
| 2026-04-23 11:05 | 28.07023 | 112.22969 | 36061 ft | 383 kts | 278° |
| 2026-04-23 11:05 | 28.08911 | 112.17236 | 36065 ft | 393 kts | 288° |
| 2026-04-23 11:06 | 28.13353 | 112.09274 | 36074 ft | 403 kts | 294° |
| 2026-04-23 11:07 | 28.16431 | 112.03972 | 36069 ft | 402 kts | 294° |
| 2026-04-23 11:07 | 28.19482 | 111.98717 | 36075 ft | 402 kts | 294° |
| 2026-04-23 11:08 | 28.22534 | 111.93432 | 36074 ft | 401 kts | 294° |
| 2026-04-23 11:08 | 28.25600 | 111.88086 | 36075 ft | 405 kts | 293° |
| 2026-04-23 11:09 | 28.28662 | 111.82746 | 36071 ft | 402 kts | 293° |
| 2026-04-23 11:09 | 28.31712 | 111.77413 | 36066 ft | 407 kts | 293° |
| 2026-04-23 11:10 | 28.34785 | 111.72042 | 36066 ft | 404 kts | 293° |
| 2026-04-23 11:10 | 28.37845 | 111.66679 | 36061 ft | 408 kts | 294° |
| 2026-04-23 11:11 | 28.40911 | 111.61307 | 36061 ft | 405 kts | 294° |
| 2026-04-23 11:11 | 28.43986 | 111.55909 | 36061 ft | 405 kts | 294° |
| 2026-04-23 11:12 | 28.47026 | 111.50562 | 36059 ft | 406 kts | 293° |
| 2026-04-23 11:12 | 28.50103 | 111.45143 | 36055 ft | 407 kts | 294° |
| 2026-04-23 11:13 | 28.53159 | 111.39758 | 36055 ft | 407 kts | 294° |
| 2026-04-23 11:13 | 28.56227 | 111.34341 | 36066 ft | 407 kts | 293° |
| 2026-04-23 11:14 | 28.59314 | 111.28886 | 36087 ft | 407 kts | 294° |
| 2026-04-23 11:14 | 28.62354 | 111.23508 | 36081 ft | 407 kts | 294° |
| 2026-04-23 11:15 | 28.65428 | 111.18058 | 36079 ft | 409 kts | 294° |
| 2026-04-23 11:15 | 28.68512 | 111.12638 | 36083 ft | 410 kts | 294° |
| 2026-04-23 11:16 | 28.71603 | 111.07225 | 36084 ft | 408 kts | 294° |
| 2026-04-23 11:16 | 28.74708 | 111.01774 | 36084 ft | 409 kts | 294° |
| 2026-04-23 11:17 | 28.77807 | 110.96327 | 36085 ft | 411 kts | 294° |
| 2026-04-23 11:17 | 28.80904 | 110.90878 | 36085 ft | 410 kts | 294° |
| 2026-04-23 11:18 | 28.84050 | 110.85332 | 36070 ft | 413 kts | 294° |
| 2026-04-23 11:18 | 28.87139 | 110.79881 | 36073 ft | 410 kts | 294° |
| 2026-04-23 11:19 | 28.90204 | 110.74464 | 36069 ft | 412 kts | 295° |
| 2026-04-23 11:19 | 28.93310 | 110.68967 | 36069 ft | 414 kts | 295° |
| 2026-04-23 11:20 | 28.96412 | 110.63472 | 36081 ft | 414 kts | 295° |
| 2026-04-23 11:20 | 28.99537 | 110.57927 | 36057 ft | 414 kts | 295° |
| 2026-04-23 11:21 | 29.02634 | 110.52425 | 36075 ft | 416 kts | 295° |
| 2026-04-23 11:21 | 29.05752 | 110.46880 | 36067 ft | 414 kts | 295° |
| 2026-04-23 11:22 | 29.08857 | 110.41349 | 36072 ft | 415 kts | 295° |
| 2026-04-23 11:22 | 29.11899 | 110.35691 | 36064 ft | 414 kts | 294° |
| 2026-04-23 11:23 | 29.14848 | 110.30062 | 36076 ft | 415 kts | 293° |
| 2026-04-23 11:23 | 29.17814 | 110.24411 | 36078 ft | 412 kts | 293° |
| 2026-04-23 11:24 | 29.20757 | 110.18797 | 36080 ft | 415 kts | 294° |
| 2026-04-23 11:24 | 29.23706 | 110.13174 | 36075 ft | 413 kts | 294° |
| 2026-04-23 11:25 | 29.26656 | 110.07540 | 36081 ft | 414 kts | 294° |
| 2026-04-23 11:25 | 29.29606 | 110.01901 | 36064 ft | 415 kts | 294° |
| 2026-04-23 11:26 | 29.32583 | 109.96200 | 36076 ft | 416 kts | 294° |
| 2026-04-23 11:26 | 29.35522 | 109.90567 | 36074 ft | 415 kts | 294° |
| 2026-04-23 11:27 | 29.38485 | 109.84879 | 36084 ft | 414 kts | 294° |
| 2026-04-23 11:27 | 29.41432 | 109.79212 | 36089 ft | 415 kts | 294° |
| 2026-04-23 11:28 | 29.44382 | 109.73533 | 36097 ft | 416 kts | 294° |
| 2026-04-23 11:28 | 29.47320 | 109.67870 | 36089 ft | 417 kts | 294° |
| 2026-04-23 11:29 | 29.50295 | 109.62128 | 36078 ft | 416 kts | 294° |
| 2026-04-23 11:29 | 29.53230 | 109.56453 | 36081 ft | 418 kts | 294° |
| 2026-04-23 11:30 | 29.56204 | 109.50694 | 36075 ft | 418 kts | 295° |
| 2026-04-23 11:30 | 29.59154 | 109.44976 | 36084 ft | 417 kts | 295° |
| 2026-04-23 11:31 | 29.62108 | 109.39243 | 36082 ft | 418 kts | 294° |
| 2026-04-23 11:31 | 29.65070 | 109.33482 | 36106 ft | 419 kts | 294° |
| 2026-04-23 11:32 | 29.68028 | 109.27724 | 36111 ft | 417 kts | 294° |
| 2026-04-23 11:32 | 29.70977 | 109.21973 | 36111 ft | 420 kts | 294° |
| 2026-04-23 11:33 | 29.73913 | 109.16241 | 36116 ft | 418 kts | 294° |
| 2026-04-23 11:33 | 29.74734 | 109.14637 | 36115 ft | 418 kts | 295° |
| 2026-04-23 11:34 | 29.77134 | 109.09953 | 36080 ft | 409 kts | 291° |
| 2026-04-23 11:34 | 29.80017 | 109.04303 | 36083 ft | 408 kts | 291° |
| 2026-04-23 11:35 | 29.82887 | 108.98667 | 36098 ft | 415 kts | 292° |
| 2026-04-23 11:35 | 29.85828 | 108.92883 | 36127 ft | 425 kts | 295° |
| 2026-04-23 11:36 | 29.88839 | 108.86963 | 36134 ft | 427 kts | 296° |
| 2026-04-23 11:36 | 29.91815 | 108.81046 | 36133 ft | 427 kts | 294° |
| 2026-04-23 11:37 | 29.93853 | 108.74687 | 36130 ft | 421 kts | 281° |
| 2026-04-23 11:37 | 29.94413 | 108.68012 | 36133 ft | 422 kts | 269° |
| 2026-04-23 11:38 | 29.93490 | 108.61371 | 36126 ft | 423 kts | 257° |
| 2026-04-23 11:38 | 29.91826 | 108.54896 | 36120 ft | 423 kts | 256° |
| 2026-04-23 11:39 | 29.90129 | 108.48420 | 36118 ft | 424 kts | 256° |
| 2026-04-23 11:39 | 29.88410 | 108.41922 | 36116 ft | 424 kts | 256° |
| 2026-04-23 11:40 | 29.86682 | 108.35435 | 36128 ft | 425 kts | 256° |
| 2026-04-23 11:40 | 29.84944 | 108.28932 | 36147 ft | 425 kts | 255° |
| 2026-04-23 11:41 | 29.83209 | 108.22461 | 36150 ft | 424 kts | 256° |
| 2026-04-23 11:41 | 29.81466 | 108.15974 | 36145 ft | 425 kts | 255° |
| 2026-04-23 11:42 | 29.79728 | 108.09525 | 36131 ft | 423 kts | 255° |
| 2026-04-23 11:42 | 29.77981 | 108.03056 | 36119 ft | 425 kts | 256° |
| 2026-04-23 11:43 | 29.76682 | 107.96527 | 36010 ft | 414 kts | 265° |
| 2026-04-23 11:43 | 29.76560 | 107.93214 | 35395 ft | 412 kts | 272° |
| 2026-04-23 11:43 | 29.76806 | 107.89971 | 34673 ft | 412 kts | 278° |
| 2026-04-23 11:43 | 29.77416 | 107.86795 | 33978 ft | 412 kts | 284° |
| 2026-04-23 11:44 | 29.78378 | 107.83682 | 33294 ft | 412 kts | 289° |
| 2026-04-23 11:44 | 29.79437 | 107.80636 | 32606 ft | 411 kts | 289° |
| 2026-04-23 11:44 | 29.80484 | 107.77602 | 31869 ft | 412 kts | 289° |
| 2026-04-23 11:44 | 29.81525 | 107.74554 | 31135 ft | 413 kts | 290° |
| 2026-04-23 11:45 | 29.82567 | 107.71474 | 30551 ft | 409 kts | 290° |
| 2026-04-23 11:45 | 29.83576 | 107.68476 | 30132 ft | 404 kts | 290° |
| 2026-04-23 11:45 | 29.84613 | 107.65380 | 29665 ft | 420 kts | 291° |
| 2026-04-23 11:45 | 29.85654 | 107.62261 | 29136 ft | 422 kts | 290° |
| 2026-04-23 11:46 | 29.86706 | 107.59100 | 28633 ft | 419 kts | 291° |
| 2026-04-23 11:46 | 29.87737 | 107.56001 | 28140 ft | 414 kts | 291° |
| 2026-04-23 11:46 | 29.88758 | 107.52921 | 27641 ft | 411 kts | 291° |
| 2026-04-23 11:46 | 29.89761 | 107.49894 | 27147 ft | 408 kts | 291° |
| 2026-04-23 11:47 | 29.90765 | 107.46857 | 26660 ft | 407 kts | 291° |
| 2026-04-23 11:47 | 29.91779 | 107.43790 | 26153 ft | 406 kts | 291° |
| 2026-04-23 11:47 | 29.92773 | 107.40777 | 25658 ft | 404 kts | 291° |
| 2026-04-23 11:47 | 29.93760 | 107.37783 | 25163 ft | 401 kts | 291° |
| 2026-04-23 11:48 | 29.94748 | 107.34782 | 24662 ft | 399 kts | 291° |
| 2026-04-23 11:48 | 29.95725 | 107.31814 | 24162 ft | 397 kts | 291° |
| 2026-04-23 11:48 | 29.96635 | 107.28829 | 23658 ft | 395 kts | 287° |
| 2026-04-23 11:48 | 29.97165 | 107.25736 | 23146 ft | 395 kts | 278° |
| 2026-04-23 11:49 | 29.97258 | 107.22587 | 22644 ft | 395 kts | 270° |
| 2026-04-23 11:49 | 29.96909 | 107.19430 | 22135 ft | 397 kts | 261° |
| 2026-04-23 11:49 | 29.96128 | 107.16389 | 21613 ft | 398 kts | 252° |
| 2026-04-23 11:49 | 29.94968 | 107.13599 | 21104 ft | 399 kts | 244° |
| 2026-04-23 11:50 | 29.93364 | 107.10903 | 20569 ft | 399 kts | 237° |
| 2026-04-23 11:50 | 29.91662 | 107.08360 | 20039 ft | 397 kts | 236° |
| 2026-04-23 11:50 | 29.89992 | 107.05881 | 19509 ft | 396 kts | 236° |
| 2026-04-23 11:50 | 29.88310 | 107.03387 | 18978 ft | 394 kts | 235° |
| 2026-04-23 11:51 | 29.86629 | 107.00899 | 18448 ft | 390 kts | 235° |
| 2026-04-23 11:51 | 29.84983 | 106.98465 | 17918 ft | 386 kts | 235° |
| 2026-04-23 11:51 | 29.83347 | 106.96047 | 17382 ft | 383 kts | 234° |
| 2026-04-23 11:51 | 29.81701 | 106.93615 | 16854 ft | 379 kts | 234° |
| 2026-04-23 11:52 | 29.80095 | 106.91245 | 16338 ft | 375 kts | 234° |
| 2026-04-23 11:52 | 29.78509 | 106.88905 | 15813 ft | 372 kts | 234° |
| 2026-04-23 11:52 | 29.76925 | 106.86569 | 15292 ft | 369 kts | 234° |
| 2026-04-23 11:52 | 29.75362 | 106.84265 | 14779 ft | 366 kts | 233° |
| 2026-04-23 11:53 | 29.73794 | 106.81956 | 14258 ft | 364 kts | 232° |
| 2026-04-23 11:53 | 29.72047 | 106.79851 | 13733 ft | 363 kts | 222° |
| 2026-04-23 11:53 | 29.70002 | 106.78199 | 13211 ft | 362 kts | 211° |
| 2026-04-23 11:53 | 29.67700 | 106.77027 | 12688 ft | 362 kts | 200° |
| 2026-04-23 11:54 | 29.65325 | 106.76168 | 12182 ft | 360 kts | 198° |
| 2026-04-23 11:54 | 29.62930 | 106.75333 | 11654 ft | 359 kts | 198° |
| 2026-04-23 11:54 | 29.60527 | 106.74501 | 11125 ft | 357 kts | 198° |
| 2026-04-23 11:54 | 29.58162 | 106.73679 | 10692 ft | 353 kts | 197° |
| 2026-04-23 11:55 | 29.55864 | 106.72881 | 10622 ft | 338 kts | 197° |
| 2026-04-23 11:55 | 29.53644 | 106.72111 | 10542 ft | 324 kts | 197° |
| 2026-04-23 11:55 | 29.51518 | 106.71375 | 10421 ft | 313 kts | 197° |
| 2026-04-23 11:55 | 29.49459 | 106.70661 | 10295 ft | 302 kts | 197° |
| 2026-04-23 11:56 | 29.47481 | 106.69978 | 10173 ft | 292 kts | 197° |
| 2026-04-23 11:56 | 29.45557 | 106.69312 | 10051 ft | 283 kts | 197° |
| 2026-04-23 11:56 | 29.43703 | 106.68671 | 9874 ft | 276 kts | 197° |
| 2026-04-23 11:56 | 29.41876 | 106.68041 | 9597 ft | 273 kts | 196° |
| 2026-04-23 11:57 | 29.40069 | 106.67419 | 9474 ft | 264 kts | 197° |
| 2026-04-23 11:57 | 29.38420 | 106.66624 | 9353 ft | 254 kts | 217° |
| 2026-04-23 11:57 | 29.37297 | 106.65135 | 9251 ft | 241 kts | 242° |
| 2026-04-23 11:57 | 29.36771 | 106.63381 | 9032 ft | 235 kts | 267° |
| 2026-04-23 11:58 | 29.36881 | 106.61494 | 8662 ft | 237 kts | 282° |
| 2026-04-23 11:58 | 29.37270 | 106.59674 | 8319 ft | 239 kts | 286° |
| 2026-04-23 11:58 | 29.37833 | 106.57864 | 7974 ft | 240 kts | 304° |
| 2026-04-23 11:58 | 29.39000 | 106.56573 | 7651 ft | 236 kts | 335° |
| 2026-04-23 11:59 | 29.40563 | 106.56155 | 7347 ft | 229 kts | 7° |
| 2026-04-23 11:59 | 29.42117 | 106.56484 | 7072 ft | 226 kts | 17° |
| 2026-04-23 11:59 | 29.43635 | 106.56980 | 6790 ft | 225 kts | 19° |
| 2026-04-23 11:59 | 29.45126 | 106.57493 | 6508 ft | 225 kts | 19° |
| 2026-04-23 12:00 | 29.46597 | 106.57999 | 6397 ft | 216 kts | 19° |
| 2026-04-23 12:00 | 29.48012 | 106.58480 | 6242 ft | 210 kts | 19° |
| 2026-04-23 12:00 | 29.49418 | 106.58952 | 5948 ft | 208 kts | 19° |
| 2026-04-23 12:00 | 29.50805 | 106.59417 | 5653 ft | 205 kts | 19° |
| 2026-04-23 12:01 | 29.52159 | 106.59873 | 5378 ft | 201 kts | 19° |
| 2026-04-23 12:01 | 29.53489 | 106.60321 | 5114 ft | 197 kts | 19° |
| 2026-04-23 12:01 | 29.54793 | 106.60761 | 4921 ft | 190 kts | 19° |
| 2026-04-23 12:01 | 29.56031 | 106.61180 | 4657 ft | 182 kts | 19° |
| 2026-04-23 12:02 | 29.57251 | 106.61585 | 4308 ft | 180 kts | 19° |
| 2026-04-23 12:02 | 29.58441 | 106.61980 | 3924 ft | 178 kts | 19° |
| 2026-04-23 12:02 | 29.59615 | 106.62369 | 3672 ft | 168 kts | 19° |
| 2026-04-23 12:02 | 29.60709 | 106.62728 | 3410 ft | 160 kts | 19° |
| 2026-04-23 12:03 | 29.61750 | 106.63064 | 3192 ft | 152 kts | 18° |
| 2026-04-23 12:03 | 29.62742 | 106.63400 | 2919 ft | 148 kts | 21° |
| 2026-04-23 12:03 | 29.63712 | 106.63781 | 2691 ft | 143 kts | 21° |
| 2026-04-23 12:03 | 29.64666 | 106.64166 | 2542 ft | 145 kts | 22° |
| 2026-04-23 12:04 | 29.65623 | 106.64537 | 2361 ft | 143 kts | 20° |
| 2026-04-23 12:04 | 29.66571 | 106.64884 | 2278 ft | 145 kts | 20° |
| 2026-04-23 12:04 | 29.67541 | 106.65228 | 2118 ft | 143 kts | 18° |
| 2026-04-23 12:04 | 29.68504 | 106.65540 | 2010 ft | 145 kts | 18° |
| 2026-04-23 12:05 | 29.69469 | 106.65872 | 1867 ft | 143 kts | 19° |
| 2026-04-23 12:05 | 29.70417 | 106.66209 | 1734 ft | 143 kts | 19° |
| 2026-04-23 12:05 | 29.71369 | 106.66544 | 1551 ft | 143 kts | 18° |
| 2026-04-23 12:05 | 29.72336 | 106.66873 | 1387 ft | 142 kts | 18° |
| 2026-04-23 12:06 | 29.73156 | 106.67155 | 1381 ft | 98 kts | 18° |
| 2026-04-23 12:06 | 29.73639 | 106.67323 | 1381 ft | 45 kts | 17° |
| 2026-04-23 12:06 | 29.73991 | 106.67373 | 1381 ft | 16 kts | 350° |
| 2026-04-23 12:07 | 29.74101 | 106.67351 | 1381 ft | 15 kts | 351° |
| 2026-04-23 12:07 | 29.74200 | 106.67333 | 1381 ft | 14 kts | 351° |
| 2026-04-23 12:07 | 29.74279 | 106.67285 | 1381 ft | 12 kts | 298° |
| 2026-04-23 12:07 | 29.74305 | 106.67191 | 1381 ft | 12 kts | 287° |
| 2026-04-23 12:08 | 29.74329 | 106.67101 | 1381 ft | 11 kts | 287° |
| 2026-04-23 12:08 | 29.74351 | 106.67016 | 1381 ft | 10 kts | 287° |
| 2026-04-23 12:08 | 29.74373 | 106.66936 | 1381 ft | 10 kts | 287° |
| 2026-04-23 12:08 | 29.74364 | 106.66863 | 1381 ft | 9 kts | 227° |
| 2026-04-23 12:09 | 29.74292 | 106.66826 | 1381 ft | 13 kts | 197° |
| 2026-04-23 12:09 | 29.74192 | 106.66791 | 1381 ft | 16 kts | 197° |
| 2026-04-23 12:09 | 29.74069 | 106.66748 | 1381 ft | 19 kts | 197° |
| 2026-04-23 12:09 | 29.73929 | 106.66699 | 1381 ft | 22 kts | 197° |
| 2026-04-23 12:10 | 29.73770 | 106.66646 | 1381 ft | 24 kts | 197° |
| 2026-04-23 12:10 | 29.73597 | 106.66586 | 1381 ft | 27 kts | 197° |
| 2026-04-23 12:10 | 29.73409 | 106.66521 | 1380 ft | 28 kts | 197° |
| 2026-04-23 12:10 | 29.73228 | 106.66459 | 1380 ft | 26 kts | 196° |
| 2026-04-23 12:11 | 29.73056 | 106.66402 | 1380 ft | 24 kts | 196° |
| 2026-04-23 12:11 | 29.72894 | 106.66349 | 1380 ft | 23 kts | 196° |
| 2026-04-23 12:11 | 29.72746 | 106.66298 | 1380 ft | 21 kts | 198° |
| 2026-04-23 12:11 | 29.72606 | 106.66247 | 1380 ft | 20 kts | 197° |
| 2026-04-23 12:12 | 29.72475 | 106.66201 | 1380 ft | 18 kts | 197° |
| 2026-04-23 12:12 | 29.72348 | 106.66156 | 1380 ft | 19 kts | 197° |
| 2026-04-23 12:12 | 29.72216 | 106.66110 | 1380 ft | 20 kts | 197° |
| 2026-04-23 12:12 | 29.72080 | 106.66063 | 1379 ft | 20 kts | 197° |
| 2026-04-23 12:13 | 29.71938 | 106.66015 | 1379 ft | 21 kts | 197° |
| 2026-04-23 12:13 | 29.71792 | 106.65966 | 1379 ft | 22 kts | 197° |
| 2026-04-23 12:13 | 29.71645 | 106.65913 | 1379 ft | 22 kts | 197° |
| 2026-04-23 12:13 | 29.71493 | 106.65858 | 1379 ft | 22 kts | 198° |
| 2026-04-23 12:14 | 29.71394 | 106.65813 | 1379 ft | 9 kts | 218° |
| 2026-04-23 12:14 | 29.71374 | 106.65745 | 1379 ft | 8 kts | 289° |
| 2026-04-23 12:14 | 29.71406 | 106.65688 | 1379 ft | 8 kts | 303° |
| 2026-04-23 12:14 | 29.71435 | 106.65633 | 1379 ft | 5 kts | 300° |
| 2026-04-23 12:15 | 29.71441 | 106.65620 | 1379 ft | 0 kts | 300° |
| 2026-04-23 12:15 | 29.71442 | 106.65619 | 1379 ft | 0 kts | 300° |